Terminal Aerodrome Forecast
Issued by NWS Sioux Falls, SD

Home | Current Version | Previous Version | Text Only | Print | Product List | Glossary On
Versions: 1 2 3 4 5 6 7 8 9 10 11 12 13 14 15 16
000
FTUS43 KFSD 262320
TAFSUX
TAF
KSUX 262320Z 2700/2724 10007KT P6SM BKN150
     FM270100 11006KT P6SM SHRA VCTS BKN080CB
     FM270900 10007KT 5SM SHRA VCTS OVC030CB
     FM271000 12007KT P6SM -SHRA OVC015
     FM271500 14007KT P6SM OVC025
     FM271700 16007KT P6SM BKN045=

USA.gov is the U.S. government's official web portal to all federal, state and local government web resources and services.